Time;durP1;ratioP1;P1;durP2;ratioP2;P2;SDS_P1;SDS_P2;PMS_P1;PMS_P2;Temp;Humidity;BMP_temperature;BMP_pressure;BME280_temperature;BME280_humidity;BME280_pressure;Samples;Min_cycle;Max_cycle;Signal;HPM_P1;HPM_P2
2022/05/02 00:00:41;;;;;;;11.55;8.15;;;;;;;6.96;97.56;100677.63;5075975;28;20020;-82
2022/05/02 00:03:06;;;;;;;11.23;8.25;;;;;;;6.90;98.11;100670.59;5057662;28;20487;-84
2022/05/02 00:05:31;;;;;;;12.40;8.38;;;;;;;6.81;99.39;100672.44;5057851;28;20181;-85
2022/05/02 00:07:57;;;;;;;12.43;8.57;;;;;;;6.77;99.75;100678.66;5058275;28;20032;-84
2022/05/02 00:10:23;;;;;;;11.73;8.38;;;;;;;6.73;99.26;100668.94;5057818;28;20017;-85
2022/05/02 00:12:48;;;;;;;12.77;8.90;;;;;;;6.66;99.88;100676.09;5075587;28;20044;-85
2022/05/02 00:15:14;;;;;;;14.95;9.10;;;;;;;6.62;100.00;100665.50;5075592;28;20099;-84
2022/05/02 00:17:58;;;;;;;11.50;8.82;;;;;;;6.56;100.00;100667.31;5076299;28;20028;-82
2022/05/02 00:20:24;;;;;;;15.35;9.38;;;;;;;6.54;100.00;100661.13;5057487;28;20477;-85
2022/05/02 00:22:49;;;;;;;13.45;9.18;;;;;;;6.51;100.00;100665.56;5074100;28;20033;-85
2022/05/02 00:25:15;;;;;;;13.32;8.65;;;;;;;6.45;100.00;100655.88;5075386;28;20024;-84
2022/05/02 00:27:42;;;;;;;11.38;8.63;;;;;;;6.19;100.00;100646.31;5057146;28;20027;-83
2022/05/02 00:30:10;;;;;;;14.43;8.60;;;;;;;6.05;100.00;100655.22;5075085;28;20070;-85
2022/05/02 00:32:35;;;;;;;11.77;8.90;;;;;;;6.04;100.00;100653.44;5057339;28;20024;-85
2022/05/02 00:35:01;;;;;;;13.30;8.73;;;;;;;5.94;100.00;100652.63;5074973;28;20021;-85
2022/05/02 00:37:26;;;;;;;15.05;9.25;;;;;;;5.93;100.00;100645.53;5056454;28;20024;-85
2022/05/02 00:39:51;;;;;;;13.77;8.57;;;;;;;5.88;100.00;100650.88;5074735;28;20507;-84
2022/05/02 00:42:18;;;;;;;12.35;8.80;;;;;;;5.91;100.00;100644.66;5074488;28;20023;-84
2022/05/02 00:44:43;;;;;;;12.48;8.63;;;;;;;5.91;100.00;100642.03;5056500;28;20086;-83
2022/05/02 00:47:09;;;;;;;14.80;9.07;;;;;;;5.95;100.00;100649.09;5074561;28;20025;-83
2022/05/02 00:49:37;;;;;;;11.30;8.98;;;;;;;5.96;100.00;100634.03;5089216;22;20045;-82
2022/05/02 00:52:02;;;;;;;13.25;8.77;;;;;;;5.97;100.00;100638.47;5054744;28;20028;-82
2022/05/02 00:54:28;;;;;;;12.15;8.27;;;;;;;5.92;100.00;100642.03;5054326;28;20036;-81
2022/05/02 00:56:53;;;;;;;11.38;8.63;;;;;;;5.90;100.00;100635.84;5053980;28;20122;-82
2022/05/02 00:59:21;;;;;;;13.43;9.30;;;;;;;5.88;100.00;100637.63;5054331;28;20385;-81
2022/05/02 01:01:47;;;;;;;12.30;9.68;;;;;;;5.80;100.00;100640.28;5036042;28;20029;-81
2022/05/02 01:04:12;;;;;;;13.75;9.98;;;;;;;5.81;100.00;100636.78;5054397;28;20055;-81
2022/05/02 01:09:22;;;;;;;14.00;9.07;;;;;;;5.77;100.00;100632.34;5054272;28;20082;-81
2022/05/02 01:11:47;;;;;;;13.55;8.73;;;;;;;5.77;100.00;100634.16;5054171;28;20108;-82
2022/05/02 01:14:12;;;;;;;12.60;8.48;;;;;;;5.75;100.00;100636.78;5054342;28;20474;-82
2022/05/02 01:16:37;;;;;;;13.80;8.55;;;;;;;5.65;100.00;100638.59;5054992;28;20029;-82
2022/05/02 01:19:03;;;;;;;14.65;9.27;;;;;;;5.58;100.00;100631.56;5036522;28;20035;-82
2022/05/02 01:21:29;;;;;;;12.88;9.18;;;;;;;5.55;100.00;100635.09;5037053;28;20027;-82
2022/05/02 01:23:58;;;;;;;12.82;9.07;;;;;;;5.57;100.00;100629.78;5054335;28;20103;-82
2022/05/02 01:26:24;;;;;;;12.32;8.68;;;;;;;5.54;100.00;100627.19;5056381;28;20390;-81
2022/05/02 01:28:55;;;;;;;12.02;8.48;;;;;;;5.50;100.00;100626.28;5054643;28;20471;-81
2022/05/02 01:31:20;;;;;;;14.88;8.63;;;;;;;5.51;100.00;100624.53;5035950;28;20028;-82
2022/05/02 01:33:47;;;;;;;14.43;8.20;;;;;;;5.46;100.00;100628.06;5054581;28;20021;-82
2022/05/02 01:36:13;;;;;;;10.63;7.38;;;;;;;5.47;100.00;100627.19;5054397;28;20032;-82
2022/05/02 01:38:39;;;;;;;12.52;8.18;;;;;;;5.48;100.00;100615.72;5056903;28;20343;-82
2022/05/02 01:41:06;;;;;;;13.75;8.13;;;;;;;5.51;100.00;100621.88;5055981;28;20017;-83
2022/05/02 01:43:31;;;;;;;12.88;8.07;;;;;;;5.50;100.00;100612.16;5056281;28;20027;-82
2022/05/02 01:46:01;;;;;;;10.90;7.55;;;;;;;5.44;100.00;100611.28;5038151;28;20053;-81
2022/05/02 01:48:27;;;;;;;11.82;8.18;;;;;;;5.42;100.00;100607.78;5038353;28;20049;-82
2022/05/02 01:50:53;;;;;;;10.68;7.32;;;;;;;5.43;100.00;100609.56;5058306;28;20032;-83
2022/05/02 01:53:19;;;;;;;12.00;7.65;;;;;;;5.31;100.00;100605.16;5047854;28;20024;-82
2022/05/02 01:55:44;;;;;;;13.75;7.93;;;;;;;5.13;100.00;100606.09;5047251;28;20029;-82
2022/05/02 01:58:10;;;;;;;12.70;7.93;;;;;;;5.02;100.00;100599.06;5047571;28;20025;-83
2022/05/02 02:00:36;;;;;;;12.25;7.68;;;;;;;5.03;100.00;100598.16;5047070;28;20559;-83
2022/05/02 02:03:01;;;;;;;9.95;7.32;;;;;;;5.02;100.00;100601.72;5046649;28;20463;-83
2022/05/02 02:08:10;;;;;;;17.35;7.88;;;;;;;4.99;100.00;100593.78;5056736;28;20112;-82
2022/05/02 02:10:36;;;;;;;14.13;7.70;;;;;;;4.99;100.00;100603.47;5055261;28;20449;-83
2022/05/02 02:13:01;;;;;;;14.50;8.50;;;;;;;5.02;100.00;100600.84;5055460;28;20059;-83
2022/05/02 02:15:26;;;;;;;11.13;7.97;;;;;;;4.99;100.00;100595.53;5056307;28;20032;-82
2022/05/02 02:17:51;;;;;;;11.60;8.13;;;;;;;5.00;100.00;100595.53;5054920;28;20461;-82
2022/05/02 02:20:17;;;;;;;10.93;8.32;;;;;;;4.93;100.00;100593.78;5057840;28;20025;-83
2022/05/02 02:22:42;;;;;;;10.73;8.45;;;;;;;4.90;100.00;100594.66;5056587;28;20049;-83
2022/05/02 02:25:11;;;;;;;9.48;7.47;;;;;;;4.94;100.00;100589.38;5038302;28;20390;-83
2022/05/02 02:27:36;;;;;;;13.02;8.80;;;;;;;4.95;100.00;100594.66;5056525;28;20017;-82
2022/05/02 02:30:03;;;;;;;12.18;8.18;;;;;;;4.92;100.00;100592.03;5055756;28;20087;-83
2022/05/02 02:32:28;;;;;;;14.40;8.63;;;;;;;4.80;100.00;100588.50;5038668;28;20036;-82
2022/05/02 02:34:53;;;;;;;14.13;8.88;;;;;;;4.73;100.00;100586.75;5056079;28;20445;-82
2022/05/02 02:37:19;;;;;;;11.30;8.32;;;;;;;4.77;100.00;100593.78;5055837;28;20052;-81
2022/05/02 02:39:45;;;;;;;11.60;8.82;;;;;;;4.83;100.00;100598.19;5054288;28;20108;-81
2022/05/02 02:42:11;;;;;;;11.90;8.82;;;;;;;4.74;100.00;100593.78;5056519;28;20482;-82
2022/05/02 02:44:36;;;;;;;14.95;10.07;;;;;;;4.79;100.00;100592.03;5054165;28;20029;-82
2022/05/02 02:47:03;;;;;;;14.90;10.90;;;;;;;4.78;100.00;100590.28;5057384;28;20542;-82
2022/05/02 02:49:29;;;;;;;16.17;10.48;;;;;;;4.76;100.00;100585.88;5058670;28;20089;-82
2022/05/02 02:51:54;;;;;;;13.85;10.30;;;;;;;4.74;100.00;100577.91;5041656;28;20029;-82
2022/05/02 02:54:20;;;;;;;12.63;9.30;;;;;;;4.71;100.00;100580.59;5041679;28;20501;-82
2022/05/02 02:56:46;;;;;;;14.05;9.95;;;;;;;4.52;100.00;100577.94;5060060;28;20025;-82
2022/05/02 02:59:11;;;;;;;13.05;9.80;;;;;;;4.47;100.00;100575.31;5042776;28;20034;-82
2022/05/02 03:01:37;;;;;;;14.95;9.38;;;;;;;4.54;100.00;100570.00;5059040;28;20033;-83
2022/05/02 03:06:01;;;;;;;13.85;9.45;;;;;;;4.58;100.00;100572.66;5059795;28;20458;-82
2022/05/02 03:06:48;;;;;;;13.38;9.60;;;;;;;4.57;100.00;100565.59;5059766;28;20031;-82
2022/05/02 03:09:13;;;;;;;13.98;9.43;;;;;;;4.44;100.00;100569.13;5059854;28;20111;-82
2022/05/02 03:11:39;;;;;;;13.43;9.75;;;;;;;4.47;100.00;100564.72;5060071;28;20060;-81
2022/05/02 03:14:05;;;;;;;15.63;10.10;;;;;;;4.46;100.00;100562.94;5042045;28;20021;-82
2022/05/02 03:16:30;;;;;;;15.32;9.30;;;;;;;4.49;100.00;100562.06;5022770;28;20033;-82
2022/05/02 03:18:56;;;;;;;14.60;9.82;;;;;;;4.52;100.00;100562.06;5040287;28;20047;-82
2022/05/02 03:21:21;;;;;;;15.13;11.20;;;;;;;4.50;100.00;100568.25;5056586;28;20028;-82
2022/05/02 03:23:46;;;;;;;18.15;10.95;;;;;;;4.44;100.00;100558.53;5058431;28;20476;-83
2022/05/02 03:26:11;;;;;;;17.88;10.90;;;;;;;4.41;100.00;100558.53;5040620;28;20086;-82
2022/05/02 03:28:37;;;;;;;14.95;10.88;;;;;;;4.35;100.00;100557.69;5057408;28;20043;-81
2022/05/02 03:31:03;;;;;;;17.58;11.25;;;;;;;4.33;100.00;100551.50;5058109;28;20029;-81
2022/05/02 03:33:29;;;;;;;16.40;9.85;;;;;;;4.35;100.00;100556.81;5058336;28;20063;-81
2022/05/02 03:35:55;;;;;;;18.90;10.30;;;;;;;4.37;100.00;100547.09;5059042;28;20028;-82
2022/05/02 03:38:20;;;;;;;17.13;10.40;;;;;;;4.36;100.00;100548.84;5058905;28;20025;-81
2022/05/02 03:40:45;;;;;;;16.83;10.65;;;;;;;4.42;100.00;100547.09;5058516;28;20108;-82
2022/05/02 03:43:11;;;;;;;15.38;10.20;;;;;;;4.46;100.00;100551.50;5058480;28;20021;-81
2022/05/02 03:45:36;;;;;;;18.17;12.02;;;;;;;4.41;100.00;100547.97;5039989;28;20515;-82
2022/05/02 03:48:01;;;;;;;21.20;12.43;;;;;;;4.33;100.00;100546.22;5058056;28;20033;-81
2022/05/02 03:50:27;;;;;;;17.15;11.48;;;;;;;4.35;100.00;100557.69;5057897;28;20502;-82
2022/05/02 03:52:52;;;;;;;19.02;12.27;;;;;;;4.24;100.00;100556.78;5057513;28;20020;-82
2022/05/02 03:55:17;;;;;;;18.15;11.38;;;;;;;4.13;100.00;100551.50;5039002;28;20024;-82
2022/05/02 03:57:42;;;;;;;17.38;12.52;;;;;;;4.16;100.00;100553.25;5055749;28;20033;-81
2022/05/02 04:00:08;;;;;;;20.00;11.90;;;;;;;4.12;100.00;100550.59;5056165;28;20032;-82
2022/05/02 04:02:34;;;;;;;18.27;12.27;;;;;;;4.06;100.00;100565.56;5057134;28;20029;-81
2022/05/02 04:05:00;;;;;;;19.67;12.23;;;;;;;4.10;100.00;100560.28;5056650;28;20028;-81
2022/05/02 04:07:25;;;;;;;17.70;11.80;;;;;;;4.18;100.00;100554.13;5041606;28;20021;-82
2022/05/02 04:09:50;;;;;;;18.85;12.63;;;;;;;4.20;100.00;100555.91;5060870;28;20020;-82
2022/05/02 04:12:16;;;;;;;19.65;13.07;;;;;;;4.12;100.00;100550.59;5062035;28;20021;-82
2022/05/02 04:14:41;;;;;;;17.80;12.25;;;;;;;4.09;100.00;100555.91;5042868;28;20111;-81
2022/05/02 04:17:07;;;;;;;23.30;13.27;;;;;;;4.12;100.00;100558.53;5059426;28;20024;-82
2022/05/02 04:19:33;;;;;;;16.73;11.85;;;;;;;4.16;100.00;100553.25;5041163;28;20635;-82
2022/05/02 04:21:58;;;;;;;15.32;12.30;;;;;;;4.23;100.00;100558.53;5044738;28;20048;-83
2022/05/02 04:24:23;;;;;;;20.00;12.13;;;;;;;4.31;100.00;100553.25;5060399;28;20025;-82
2022/05/02 04:26:49;;;;;;;19.67;12.80;;;;;;;4.31;100.00;100557.66;5062128;28;20401;-82
2022/05/02 04:29:14;;;;;;;15.82;11.27;;;;;;;4.33;100.00;100554.13;5043350;28;20021;-81
2022/05/02 04:31:39;;;;;;;18.40;11.60;;;;;;;4.39;100.00;100557.66;5059157;28;20057;-82
2022/05/02 04:34:04;;;;;;;16.13;11.77;;;;;;;4.45;100.00;100557.69;5058129;28;20489;-82
2022/05/02 04:36:30;;;;;;;17.13;11.48;;;;;;;4.52;100.00;100555.91;5057391;28;20099;-82
2022/05/02 04:38:55;;;;;;;16.63;11.45;;;;;;;4.52;100.00;100556.78;5058707;28;20029;-84
2022/05/02 04:41:20;;;;;;;19.90;13.55;;;;;;;4.43;100.00;100552.38;5059173;28;20104;-83
2022/05/02 04:43:51;;;;;;;18.85;12.82;;;;;;;4.38;100.00;100555.91;5062980;28;20024;-83
2022/05/02 04:46:18;;;;;;;20.65;13.13;;;;;;;4.29;100.00;100557.69;5063519;28;20486;-83
2022/05/02 04:48:44;;;;;;;19.55;13.55;;;;;;;4.33;100.00;100554.13;5062840;28;20025;-83
2022/05/02 04:51:10;;;;;;;18.50;13.32;;;;;;;4.32;100.00;100552.41;5063700;28;20035;-83
2022/05/02 04:53:35;;;;;;;22.20;14.30;;;;;;;4.27;100.00;100551.50;5030131;28;20024;-83
2022/05/02 04:56:00;;;;;;;20.55;13.13;;;;;;;4.22;100.00;100553.28;5063878;28;20047;-83
2022/05/02 04:58:26;;;;;;;17.95;13.63;;;;;;;4.23;100.00;100555.91;5063738;28;20029;-84
2022/05/02 05:00:52;;;;;;;24.88;13.30;;;;;;;4.32;100.00;100549.75;5064902;28;20080;-83
2022/05/02 05:03:17;;;;;;;19.73;12.80;;;;;;;4.33;100.00;100551.50;5064454;28;20025;-83
2022/05/02 05:05:43;;;;;;;18.67;13.52;;;;;;;4.40;100.00;100562.09;5065894;28;20032;-83
2022/05/02 05:08:15;;;;;;;18.55;12.90;;;;;;;4.43;100.00;100551.50;5058977;28;20025;-83
2022/05/02 05:11:27;;;;;;;20.45;13.00;;;;;;;4.55;100.00;100562.09;5060552;28;20367;-83
2022/05/02 05:17:17;;;;;;;20.40;12.27;;;;;;;4.56;100.00;100563.81;5060833;28;20086;-83
2022/05/02 05:19:51;;;;;;;20.67;11.95;;;;;;;4.67;100.00;100563.81;5061598;28;20519;-83
2022/05/02 05:22:39;;;;;;;17.10;11.27;;;;;;;4.78;100.00;100553.22;5055732;28;20035;-83
2022/05/02 05:25:35;;;;;;;19.40;11.85;;;;;;;4.89;100.00;100561.16;5040969;28;20062;-84
2022/05/02 05:28:00;;;;;;;16.35;11.77;;;;;;;4.88;100.00;100547.91;5008874;28;20029;-82
2022/05/02 05:30:30;;;;;;;17.07;11.57;;;;;;;4.97;100.00;100553.22;5059400;28;20040;-82
2022/05/02 05:33:14;;;;;;;19.88;12.13;;;;;;;5.01;100.00;100546.13;5059006;28;20834;-83
2022/05/02 05:35:51;;;;;;;17.63;11.68;;;;;;;5.09;100.00;100554.03;5056678;28;20033;-82
2022/05/02 05:38:38;;;;;;;19.63;12.70;;;;;;;5.18;100.00;100548.72;5037718;28;20029;-82
2022/05/02 05:42:05;;;;;;;16.15;11.18;;;;;;;5.25;100.00;100558.41;5055527;28;20029;-83
2022/05/02 05:44:49;;;;;;;19.70;11.63;;;;;;;5.36;100.00;100553.06;4962201;28;20045;-83
2022/05/02 05:47:46;;;;;;;17.85;11.57;;;;;;;5.43;100.00;100558.34;4973971;28;20027;-83
2022/05/02 05:50:22;;;;;;;19.85;12.07;;;;;;;5.58;100.00;100562.69;5026168;28;20036;-82
2022/05/02 05:53:19;;;;;;;17.98;11.82;;;;;;;5.66;100.00;100560.88;5054813;28;20159;-82
2022/05/02 05:55:56;;;;;;;13.43;10.48;;;;;;;5.78;100.00;100561.69;5053621;28;20407;-82
2022/05/02 05:58:31;;;;;;;19.05;11.82;;;;;;;5.89;100.00;100564.28;5054308;28;20048;-82
2022/05/02 06:01:27;;;;;;;15.70;11.00;;;;;;;5.93;100.00;100569.56;5053868;28;20064;-82
2022/05/02 06:04:03;;;;;;;16.63;10.63;;;;;;;6.01;100.00;100571.28;5054041;28;20078;-82
2022/05/02 06:06:29;;;;;;;18.50;10.95;;;;;;;6.12;100.00;100568.59;5054458;28;20032;-82
2022/05/02 06:08:58;;;;;;;16.13;10.38;;;;;;;6.22;100.00;100562.34;5035838;28;20017;-82
2022/05/02 06:11:28;;;;;;;14.85;10.63;;;;;;;6.33;100.00;100564.91;5054278;28;20432;-82
2022/05/02 06:13:56;;;;;;;14.48;10.75;;;;;;;6.34;100.00;100564.00;5036265;28;20393;-82
2022/05/02 06:19:13;;;;;;;16.15;10.50;;;;;;;6.45;100.00;100563.03;5054849;28;20104;-82
2022/05/02 06:21:45;;;;;;;16.50;10.40;;;;;;;6.47;100.00;100566.53;5057091;28;20036;-82
2022/05/02 06:24:13;;;;;;;14.52;10.65;;;;;;;6.52;100.00;100558.56;5057685;28;20386;-82
2022/05/02 06:26:40;;;;;;;13.30;9.68;;;;;;;6.57;100.00;100567.38;5057588;28;20426;-81
2022/05/02 06:29:10;;;;;;;14.23;10.32;;;;;;;6.63;100.00;100563.75;5057950;28;20425;-82
2022/05/02 06:31:36;;;;;;;15.75;9.90;;;;;;;6.70;100.00;100565.50;5058231;28;20104;-83
2022/05/02 06:34:03;;;;;;;17.50;10.05;;;;;;;6.82;100.00;100556.53;5057491;28;20541;-82
2022/05/02 06:37:06;;;;;;;14.38;9.27;;;;;;;6.94;100.00;100566.13;5057044;28;20481;-81
2022/05/02 06:39:50;;;;;;;13.20;9.05;;;;;;;7.08;100.00;100565.09;5057249;28;20021;-82
2022/05/02 06:42:24;;;;;;;12.93;8.98;;;;;;;7.24;100.00;100569.31;5057218;28;20432;-82
2022/05/02 06:45:01;;;;;;;13.38;8.48;;;;;;;7.31;100.00;100570.16;5057549;28;20056;-82
2022/05/02 06:47:49;;;;;;;14.90;9.98;;;;;;;7.49;100.00;100562.84;5057146;28;20425;-82
2022/05/02 06:50:17;;;;;;;16.02;10.55;;;;;;;7.63;100.00;100567.97;5085043;22;20072;-86
2022/05/02 06:53:11;;;;;;;14.07;9.43;;;;;;;7.75;100.00;100568.72;5059531;28;20023;-86
2022/05/02 06:56:01;;;;;;;14.77;9.73;;;;;;;7.83;100.00;100561.53;5077018;28;20021;-86
2022/05/02 06:58:43;;;;;;;14.40;9.50;;;;;;;7.99;100.00;100570.13;5058959;28;20170;-86
2022/05/02 07:01:08;;;;;;;14.88;9.30;;;;;;;8.16;100.00;100566.34;5058337;28;20077;-86
2022/05/02 07:03:57;;;;;;;14.00;9.70;;;;;;;8.30;100.00;100562.59;5058668;28;20024;-86
2022/05/02 07:06:35;;;;;;;13.02;9.65;;;;;;;8.40;100.00;100566.00;5076424;28;20031;-84
2022/05/02 07:09:04;;;;;;;22.38;10.15;;;;;;;8.52;100.00;100560.47;5058336;28;20096;-86
2022/05/02 07:12:14;;;;;;;14.65;9.50;;;;;;;8.65;100.00;100561.16;5058363;28;20489;-86
2022/05/02 07:15:13;;;;;;;15.32;9.73;;;;;;;8.83;100.00;100564.41;5058132;28;20024;-85
2022/05/02 07:17:42;;;;;;;12.80;9.52;;;;;;;8.95;100.00;100560.63;5057770;28;20024;-85
2022/05/02 07:20:28;;;;;;;14.48;9.15;;;;;;;9.02;100.00;100570.25;5058135;28;20115;-86
2022/05/02 07:23:15;;;;;;;14.20;9.45;;;;;;;9.22;100.00;100565.44;5059229;28;20031;-87
2022/05/02 07:25:47;;;;;;;13.48;8.70;;;;;;;9.34;100.00;100567.84;5077854;28;20029;-86
2022/05/02 07:28:21;;;;;;;14.52;9.43;;;;;;;9.45;100.00;100561.44;5059096;28;20017;-87
2022/05/02 07:30:48;;;;;;;15.48;9.98;;;;;;;9.54;100.00;100565.66;5059639;28;20025;-86
2022/05/02 07:33:13;;;;;;;10.60;8.00;;;;;;;9.55;100.00;100572.78;5057632;28;20500;-85
2022/05/02 07:35:40;;;;;;;14.35;9.02;;;;;;;9.63;100.00;100568.16;5058143;28;20088;-86
2022/05/02 07:38:08;;;;;;;12.70;8.50;;;;;;;9.68;100.00;100568.94;5076028;28;20025;-85
2022/05/02 07:40:34;;;;;;;14.15;8.95;;;;;;;9.76;100.00;100573.22;5076869;28;20110;-85
2022/05/02 07:43:00;;;;;;;16.30;9.38;;;;;;;9.73;100.00;100568.84;5059651;28;20094;-84
2022/05/02 07:45:31;;;;;;;13.18;8.85;;;;;;;9.76;100.00;100570.56;5058356;28;20481;-83
2022/05/02 07:48:00;;;;;;;12.60;8.95;;;;;;;9.89;100.00;100572.03;5058527;28;20481;-84
2022/05/02 07:50:27;;;;;;;13.60;8.40;;;;;;;9.85;100.00;100565.00;5058241;28;20031;-85
2022/05/02 07:52:54;;;;;;;15.82;9.32;;;;;;;9.82;100.00;100568.63;5059763;28;20029;-85
2022/05/02 07:55:27;;;;;;;12.63;8.43;;;;;;;9.90;99.54;100570.22;5059259;28;20027;-86
2022/05/02 07:57:55;;;;;;;12.55;8.57;;;;;;;10.03;98.83;100578.84;5058745;28;20031;-87
2022/05/02 08:00:22;;;;;;;12.25;7.53;;;;;;;10.10;97.97;100572.44;5058210;28;20397;-88
2022/05/02 08:02:48;;;;;;;13.82;7.70;;;;;;;10.22;97.13;100573.97;5057559;28;20111;-87
2022/05/02 08:05:19;;;;;;;13.40;8.07;;;;;;;10.33;98.12;100568.38;5075693;28;20484;-85
2022/05/02 08:07:45;;;;;;;10.63;7.00;;;;;;;10.48;95.51;100568.88;5057931;28;20469;-86
2022/05/02 08:10:23;;;;;;;14.25;8.10;;;;;;;10.61;97.10;100570.38;5075490;28;20024;-86
2022/05/02 08:12:54;;;;;;;12.60;7.15;;;;;;;10.70;95.57;100571.03;5057482;28;20162;-86
2022/05/02 08:15:30;;;;;;;13.13;7.03;;;;;;;10.77;91.35;100567.28;5057412;28;20028;-85
2022/05/02 08:18:08;;;;;;;11.85;7.00;;;;;;;10.92;95.72;100568.69;5057217;28;20109;-86
2022/05/02 08:21:30;;;;;;;13.43;7.70;;;;;;;11.00;93.10;100564.91;5075192;28;20105;-87
2022/05/02 08:27:22;;;;;;;11.63;6.90;;;;;;;11.00;89.46;100557.78;5013978;28;20080;-86
2022/05/02 08:29:56;;;;;;;10.88;7.43;;;;;;;11.29;92.62;100560.53;5049920;28;20150;-86
2022/05/02 08:32:34;;;;;;;10.23;7.60;;;;;;;11.38;89.29;100560.28;5057064;28;20035;-86
2022/05/02 08:35:07;;;;;;;12.65;8.07;;;;;;;11.47;88.75;100564.47;5075573;28;20028;-87
2022/05/02 08:37:42;;;;;;;11.57;7.10;;;;;;;11.57;89.29;100570.41;5075097;28;20024;-86
2022/05/02 08:40:17;;;;;;;11.77;6.90;;;;;;;11.73;87.97;100565.50;5057085;28;20028;-86
2022/05/02 08:43:28;;;;;;;10.30;7.10;;;;;;;11.91;88.68;100563.19;5057903;28;20024;-86
2022/05/02 08:46:36;;;;;;;10.00;6.10;;;;;;;12.12;84.28;100560.75;5075140;28;20025;-87
2022/05/02 08:49:33;;;;;;;9.13;6.25;;;;;;;12.37;85.68;100554.59;5056780;28;20021;-86
2022/05/02 08:52:17;;;;;;;9.85;6.50;;;;;;;12.60;84.50;100555.63;5005621;28;20048;-86
2022/05/02 08:55:21;;;;;;;12.18;6.72;;;;;;;12.71;83.44;100541.00;5056706;28;20470;-86
2022/05/02 08:58:21;;;;;;;9.68;6.35;;;;;;;12.89;81.81;100544.81;5056635;28;20040;-86
2022/05/02 09:01:08;;;;;;;8.95;6.53;;;;;;;12.97;81.15;100547.22;5074710;28;20028;-86
2022/05/02 09:04:11;;;;;;;11.55;6.63;;;;;;;13.33;85.50;100545.94;5056595;28;20024;-85
2022/05/02 09:07:13;;;;;;;9.25;6.60;;;;;;;13.30;76.83;100544.25;5056547;28;20034;-86
2022/05/02 09:10:10;;;;;;;7.90;5.65;;;;;;;13.43;75.86;100548.25;5056584;28;20017;-85
2022/05/02 09:13:12;;;;;;;10.80;6.07;;;;;;;13.62;75.77;100535.94;5057531;28;20111;-85
2022/05/02 09:15:59;;;;;;;9.88;6.00;;;;;;;13.81;75.15;100547.75;5074663;28;20024;-86
2022/05/02 09:18:37;;;;;;;11.48;6.60;;;;;;;13.73;72.77;100540.88;5056370;28;20021;-86
2022/05/02 09:21:22;;;;;;;12.75;5.85;;;;;;;13.90;72.72;100542.00;5056075;28;20032;-87
2022/05/02 09:24:15;;;;;;;8.95;5.50;;;;;;;14.22;73.63;100541.66;5056265;28;20115;-85
2022/05/02 09:27:14;;;;;;;8.50;6.07;;;;;;;14.27;70.29;100544.13;5056351;28;20115;-86
2022/05/02 09:29:58;;;;;;;10.52;6.68;;;;;;;14.19;69.18;100537.28;5074514;28;20021;-86
2022/05/02 09:32:45;;;;;;;9.02;6.30;;;;;;;14.41;68.00;100547.13;5056243;28;20024;-86
2022/05/02 09:35:18;;;;;;;9.82;6.32;;;;;;;14.65;67.99;100538.06;5056808;28;20032;-86
2022/05/02 09:37:59;;;;;;;9.80;5.95;;;;;;;14.99;70.46;100533.06;5074242;28;20026;-87
2022/05/02 09:40:35;;;;;;;13.07;6.80;;;;;;;15.16;68.38;100534.09;5055980;28;20024;-86
2022/05/02 09:49:33;;;;;;;13.13;6.18;;;;;;;15.40;66.42;100534.81;5074255;28;20500;-86
2022/05/02 09:49:34;;;;;;;9.57;5.85;;;;;;;15.69;65.33;100523.63;5074682;28;20043;-87
2022/05/02 09:52:15;;;;;;;9.82;6.30;;;;;;;15.52;67.22;100522.59;5055817;28;20079;-87
2022/05/02 09:58:32;;;;;;;10.13;5.50;;;;;;;16.44;65.74;100510.16;5073889;28;20035;-86
2022/05/02 10:01:08;;;;;;;10.60;5.85;;;;;;;16.55;66.92;100505.06;5016289;28;20064;-86
2022/05/02 10:03:59;;;;;;;10.00;5.75;;;;;;;16.27;64.62;100506.47;5074620;28;20025;-86
2022/05/02 10:06:41;;;;;;;10.38;5.75;;;;;;;16.63;61.89;100516.31;5055960;28;20481;-87
2022/05/02 10:09:29;;;;;;;9.90;5.85;;;;;;;16.38;58.95;100509.53;5056022;28;20028;-86
2022/05/02 10:12:12;;;;;;;10.68;5.65;;;;;;;16.69;62.77;100503.47;5074076;28;20024;-87
2022/05/02 10:14:50;;;;;;;9.90;6.18;;;;;;;16.57;61.00;100513.94;5074323;28;20033;-86
2022/05/02 10:17:24;;;;;;;9.65;5.63;;;;;;;17.03;65.67;100501.69;5056717;28;20083;-85
2022/05/02 10:20:17;;;;;;;11.48;5.70;;;;;;;17.04;58.85;100506.13;5055983;28;20032;-86
2022/05/02 10:22:49;;;;;;;8.80;5.70;;;;;;;17.15;57.25;100501.97;5075652;28;20024;-88
2022/05/02 10:25:27;;;;;;;9.63;5.77;;;;;;;17.57;59.10;100501.53;5074556;28;20029;-86
2022/05/02 10:28:24;;;;;;;13.05;6.65;;;;;;;17.12;54.81;100502.13;5075017;28;20017;-86
2022/05/02 10:30:50;;;;;;;8.32;5.10;;;;;;;17.77;60.31;100495.00;5073887;28;20052;-86
2022/05/02 10:33:26;;;;;;;12.10;5.60;;;;;;;17.45;53.26;100503.94;5056139;28;20024;-86
2022/05/02 10:35:52;;;;;;;9.00;5.72;;;;;;;17.51;56.42;100498.22;5056043;28;20028;-86
2022/05/02 10:38:27;;;;;;;8.73;5.75;;;;;;;17.76;53.52;100502.22;5056427;28;20028;-86
2022/05/02 10:41:11;;;;;;;12.00;6.63;;;;;;;16.37;55.80;100486.19;5056277;28;20397;-86
2022/05/02 10:43:42;;;;;;;10.20;6.32;;;;;;;17.04;59.38;100492.63;5075373;28;20404;-86
2022/05/02 10:46:12;;;;;;;9.45;5.88;;;;;;;17.67;56.87;100491.06;5057355;28;20469;-86
2022/05/02 10:48:44;;;;;;;15.23;6.72;;;;;;;17.22;57.18;100487.22;5076645;28;20032;-86
2022/05/02 10:51:24;;;;;;;9.93;5.63;;;;;;;17.89;60.72;100484.44;5056959;28;20037;-86
2022/05/02 10:54:07;;;;;;;10.18;5.60;;;;;;;17.85;53.25;100490.03;5056834;28;20021;-86
2022/05/02 10:56:44;;;;;;;9.95;6.25;;;;;;;17.33;53.94;100488.44;5059308;28;20028;-85
2022/05/02 10:59:14;;;;;;;9.90;6.22;;;;;;;17.94;60.02;100475.09;5078005;28;20045;-85
2022/05/02 11:01:58;;;;;;;10.80;6.30;;;;;;;18.50;55.78;100478.22;5060890;28;20029;-86
2022/05/02 11:04:49;;;;;;;10.77;6.30;;;;;;;18.27;53.69;100486.72;5079676;28;20012;-88
2022/05/02 11:07:27;;;;;;;11.35;6.82;;;;;;;17.71;54.30;100477.31;5076897;28;20024;-87
2022/05/02 11:10:02;;;;;;;11.27;7.07;;;;;;;18.43;53.08;100473.19;5061742;28;20020;-88
2022/05/02 11:12:31;;;;;;;11.10;6.50;;;;;;;18.69;53.21;100477.97;5060411;28;20025;-87
2022/05/02 11:15:06;;;;;;;9.15;6.35;;;;;;;18.60;53.82;100474.00;5060635;28;20020;-87
2022/05/02 11:17:35;;;;;;;12.68;7.30;;;;;;;19.02;56.94;100472.38;5077551;28;20032;-86
2022/05/02 11:22:59;;;;;;;14.38;7.60;;;;;;;18.99;53.44;100462.63;5077595;28;20036;-86
2022/05/02 11:25:34;;;;;;;10.45;7.47;;;;;;;18.77;53.23;100472.06;5059307;28;20462;-86
2022/05/02 11:28:19;;;;;;;13.75;7.30;;;;;;;18.62;54.74;100457.66;5058984;28;20436;-84
2022/05/02 11:30:55;;;;;;;10.40;7.72;;;;;;;18.06;55.00;100464.56;5059497;28;20028;-85
2022/05/02 11:33:31;;;;;;;10.07;7.15;;;;;;;18.53;60.77;100456.38;5077005;28;20020;-86
2022/05/02 11:36:02;;;;;;;10.70;7.28;;;;;;;18.71;58.72;100458.94;5059546;28;20024;-85
2022/05/02 11:38:40;;;;;;;10.13;7.30;;;;;;;18.51;54.77;100458.31;5076709;28;20107;-86
2022/05/02 11:41:21;;;;;;;13.02;8.00;;;;;;;18.82;55.34;100461.84;5076497;28;20028;-85
2022/05/02 11:43:48;;;;;;;9.63;7.30;;;;;;;18.85;54.00;100464.34;5059113;28;20452;-87
2022/05/02 11:46:22;;;;;;;15.55;7.78;;;;;;;18.48;52.96;100458.50;5076383;28;20040;-87
2022/05/02 11:48:57;;;;;;;10.60;7.30;;;;;;;18.42;52.00;100459.78;5060937;28;20028;-85
2022/05/02 11:51:43;;;;;;;9.45;6.38;;;;;;;18.79;53.65;100453.91;5076362;28;20032;-85
2022/05/02 11:54:33;;;;;;;13.13;7.15;;;;;;;18.72;52.81;100450.72;5058228;28;20036;-87
2022/05/02 11:57:21;;;;;;;10.35;7.53;;;;;;;18.57;53.17;100447.13;5059372;28;20021;-86
2022/05/02 12:00:07;;;;;;;9.40;7.00;;;;;;;19.19;53.36;100446.97;5058098;28;20016;-85
2022/05/02 12:02:42;;;;;;;13.02;7.75;;;;;;;19.33;53.40;100447.94;5058369;28;20043;-87
2022/05/02 12:05:21;;;;;;;9.23;7.07;;;;;;;18.97;52.78;100442.91;5058762;28;20078;-86
2022/05/02 12:07:53;;;;;;;10.52;6.78;;;;;;;19.46;50.18;100438.03;5058618;28;20056;-86
2022/05/02 12:10:19;;;;;;;12.05;6.93;;;;;;;19.54;52.78;100435.69;5075952;28;20050;-85